sensor_id;sensor_type;location;lat;lon;timestamp;pressure;altitude;pressure_sealevel;temperature;humidity
15884;BME280;8040;50.254;10.960;2023-02-13T00:01:00;100326.31;;;7.59;76.18
15884;BME280;8040;50.254;10.960;2023-02-13T00:03:25;100321.22;;;7.51;76.08
15884;BME280;8040;50.254;10.960;2023-02-13T00:05:51;100317.34;;;7.47;76.30
15884;BME280;8040;50.254;10.960;2023-02-13T00:08:16;100321.69;;;7.48;76.55
15884;BME280;8040;50.254;10.960;2023-02-13T00:10:41;100314.66;;;7.47;76.26
15884;BME280;8040;50.254;10.960;2023-02-13T00:13:07;100303.72;;;7.42;76.44
15884;BME280;8040;50.254;10.960;2023-02-13T00:15:32;100310.28;;;7.46;76.43
15884;BME280;8040;50.254;10.960;2023-02-13T00:17:58;100305.00;;;7.39;76.72
15884;BME280;8040;50.254;10.960;2023-02-13T00:20:23;100304.78;;;7.41;76.58
15884;BME280;8040;50.254;10.960;2023-02-13T00:22:48;100296.03;;;7.28;76.59
15884;BME280;8040;50.254;10.960;2023-02-13T00:25:15;100306.13;;;7.32;76.45
15884;BME280;8040;50.254;10.960;2023-02-13T00:27:42;100283.59;;;7.27;76.38
15884;BME280;8040;50.254;10.960;2023-02-13T00:30:09;100313.09;;;7.39;76.68
15884;BME280;8040;50.254;10.960;2023-02-13T00:32:34;100311.19;;;7.40;76.46
15884;BME280;8040;50.254;10.960;2023-02-13T00:35:00;100296.97;;;7.33;76.57
15884;BME280;8040;50.254;10.960;2023-02-13T00:37:25;100300.28;;;7.35;76.78
15884;BME280;8040;50.254;10.960;2023-02-13T00:39:51;100306.78;;;7.45;76.48
15884;BME280;8040;50.254;10.960;2023-02-13T00:42:16;100303.84;;;7.47;76.26
15884;BME280;8040;50.254;10.960;2023-02-13T00:44:42;100292.44;;;7.45;76.17
15884;BME280;8040;50.254;10.960;2023-02-13T00:47:07;100316.56;;;7.58;75.73
15884;BME280;8040;50.254;10.960;2023-02-13T00:49:33;100310.91;;;7.48;75.87
15884;BME280;8040;50.254;10.960;2023-02-13T00:51:59;100307.50;;;7.52;75.78
15884;BME280;8040;50.254;10.960;2023-02-13T00:54:24;100305.94;;;7.45;76.02
15884;BME280;8040;50.254;10.960;2023-02-13T00:56:50;100303.44;;;7.32;76.70
15884;BME280;8040;50.254;10.960;2023-02-13T00:59:15;100273.19;;;7.12;77.06
15884;BME280;8040;50.254;10.960;2023-02-13T01:01:41;100311.66;;;7.37;77.27
15884;BME280;8040;50.254;10.960;2023-02-13T01:04:08;100303.09;;;7.40;77.33
15884;BME280;8040;50.254;10.960;2023-02-13T01:06:34;100308.13;;;7.36;76.92
15884;BME280;8040;50.254;10.960;2023-02-13T01:09:02;100300.88;;;7.37;77.31
15884;BME280;8040;50.254;10.960;2023-02-13T01:11:27;100299.00;;;7.38;76.76
15884;BME280;8040;50.254;10.960;2023-02-13T01:13:52;100306.84;;;7.39;76.90
15884;BME280;8040;50.254;10.960;2023-02-13T01:16:18;100291.53;;;7.22;77.17
15884;BME280;8040;50.254;10.960;2023-02-13T01:18:44;100309.88;;;7.31;76.82
15884;BME280;8040;50.254;10.960;2023-02-13T01:21:15;100298.72;;;7.28;76.29
15884;BME280;8040;50.254;10.960;2023-02-13T01:23:41;100302.56;;;7.20;76.63
15884;BME280;8040;50.254;10.960;2023-02-13T01:26:08;100313.81;;;7.17;76.73
15884;BME280;8040;50.254;10.960;2023-02-13T01:28:35;100313.13;;;7.22;76.47
15884;BME280;8040;50.254;10.960;2023-02-13T01:31:00;100300.91;;;7.19;76.14
15884;BME280;8040;50.254;10.960;2023-02-13T01:33:27;100305.09;;;7.15;76.03
15884;BME280;8040;50.254;10.960;2023-02-13T01:35:53;100301.53;;;7.03;76.71
15884;BME280;8040;50.254;10.960;2023-02-13T01:38:19;100303.78;;;7.06;76.65
15884;BME280;8040;50.254;10.960;2023-02-13T01:40:46;100296.59;;;7.00;76.53
15884;BME280;8040;50.254;10.960;2023-02-13T01:43:12;100293.38;;;6.92;76.55
15884;BME280;8040;50.254;10.960;2023-02-13T01:45:38;100298.34;;;6.95;76.50
15884;BME280;8040;50.254;10.960;2023-02-13T01:48:24;100307.97;;;7.02;75.58
15884;BME280;8040;50.254;10.960;2023-02-13T01:51:03;100307.81;;;6.97;75.47
15884;BME280;8040;50.254;10.960;2023-02-13T01:53:39;100307.69;;;6.92;75.51
15884;BME280;8040;50.254;10.960;2023-02-13T01:56:14;100299.09;;;6.84;75.13
15884;BME280;8040;50.254;10.960;2023-02-13T01:58:43;100302.31;;;6.92;74.84
15884;BME280;8040;50.254;10.960;2023-02-13T02:01:10;100289.56;;;6.81;74.16
15884;BME280;8040;50.254;10.960;2023-02-13T02:03:48;100293.22;;;6.69;73.87
15884;BME280;8040;50.254;10.960;2023-02-13T02:06:37;100295.75;;;6.64;73.59
15884;BME280;8040;50.254;10.960;2023-02-13T02:09:11;100290.84;;;6.61;73.32
15884;BME280;8040;50.254;10.960;2023-02-13T02:14:13;100294.59;;;6.60;73.52
15884;BME280;8040;50.254;10.960;2023-02-13T02:16:38;100286.34;;;6.55;73.60
15884;BME280;8040;50.254;10.960;2023-02-13T02:19:13;100290.47;;;6.57;73.47
15884;BME280;8040;50.254;10.960;2023-02-13T02:24:40;100299.88;;;6.48;73.14
15884;BME280;8040;50.254;10.960;2023-02-13T02:27:36;100296.44;;;6.41;73.27
15884;BME280;8040;50.254;10.960;2023-02-13T02:33:45;100270.50;;;6.22;73.33
15884;BME280;8040;50.254;10.960;2023-02-13T02:36:52;100299.09;;;6.23;72.79
15884;BME280;8040;50.254;10.960;2023-02-13T02:39:43;100297.22;;;6.24;72.90
15884;BME280;8040;50.254;10.960;2023-02-13T02:45:13;100302.47;;;6.19;72.66
15884;BME280;8040;50.254;10.960;2023-02-13T02:47:55;100309.69;;;6.18;72.63
15884;BME280;8040;50.254;10.960;2023-02-13T02:51:07;100306.50;;;6.10;73.06
15884;BME280;8040;50.254;10.960;2023-02-13T02:56:26;100294.78;;;5.98;73.01
15884;BME280;8040;50.254;10.960;2023-02-13T02:59:04;100291.03;;;5.99;72.59
15884;BME280;8040;50.254;10.960;2023-02-13T03:01:50;100296.22;;;6.00;73.01
15884;BME280;8040;50.254;10.960;2023-02-13T03:04:41;100295.59;;;5.98;72.76
15884;BME280;8040;50.254;10.960;2023-02-13T03:07:26;100299.34;;;5.97;72.90
15884;BME280;8040;50.254;10.960;2023-02-13T03:09:56;100302.63;;;5.99;72.86
15884;BME280;8040;50.254;10.960;2023-02-13T03:13:01;100299.16;;;5.92;72.77
15884;BME280;8040;50.254;10.960;2023-02-13T03:15:47;100307.25;;;5.92;72.90
15884;BME280;8040;50.254;10.960;2023-02-13T03:18:36;100310.09;;;5.97;72.87
15884;BME280;8040;50.254;10.960;2023-02-13T03:24:28;100299.66;;;5.83;73.37
15884;BME280;8040;50.254;10.960;2023-02-13T03:36:45;100309.72;;;5.94;72.54
15884;BME280;8040;50.254;10.960;2023-02-13T03:39:58;100316.75;;;5.95;72.87
15884;BME280;8040;50.254;10.960;2023-02-13T03:45:00;100299.38;;;5.91;72.84
15884;BME280;8040;50.254;10.960;2023-02-13T03:47:51;100314.66;;;5.97;72.48
15884;BME280;8040;50.254;10.960;2023-02-13T03:50:17;100303.56;;;5.87;72.55
15884;BME280;8040;50.254;10.960;2023-02-13T03:52:46;100319.03;;;5.98;72.49
15884;BME280;8040;50.254;10.960;2023-02-13T03:55:22;100315.88;;;6.01;72.46
15884;BME280;8040;50.254;10.960;2023-02-13T03:58:20;100305.44;;;6.11;72.21
15884;BME280;8040;50.254;10.960;2023-02-13T04:01:07;100304.19;;;6.13;71.95
15884;BME280;8040;50.254;10.960;2023-02-13T04:06:09;100301.47;;;6.13;72.10
15884;BME280;8040;50.254;10.960;2023-02-13T04:08:35;100310.75;;;6.17;72.14
15884;BME280;8040;50.254;10.960;2023-02-13T04:14:06;100315.09;;;6.18;71.60
15884;BME280;8040;50.254;10.960;2023-02-13T04:16:38;100318.63;;;6.19;72.02
15884;BME280;8040;50.254;10.960;2023-02-13T04:19:06;100308.06;;;6.17;71.80
15884;BME280;8040;50.254;10.960;2023-02-13T04:21:33;100307.47;;;6.15;71.88
15884;BME280;8040;50.254;10.960;2023-02-13T04:23:59;100294.66;;;6.11;71.98
15884;BME280;8040;50.254;10.960;2023-02-13T04:26:30;100307.28;;;6.10;72.00
15884;BME280;8040;50.254;10.960;2023-02-13T04:28:57;100304.06;;;6.02;71.97
15884;BME280;8040;50.254;10.960;2023-02-13T04:31:22;100305.06;;;6.07;72.32
15884;BME280;8040;50.254;10.960;2023-02-13T04:33:47;100304.59;;;6.10;72.49
15884;BME280;8040;50.254;10.960;2023-02-13T04:36:13;100305.28;;;6.06;72.12
15884;BME280;8040;50.254;10.960;2023-02-13T04:38:38;100301.75;;;6.05;72.02
15884;BME280;8040;50.254;10.960;2023-02-13T04:41:03;100306.53;;;6.03;72.37
15884;BME280;8040;50.254;10.960;2023-02-13T04:43:29;100309.81;;;6.05;72.04
15884;BME280;8040;50.254;10.960;2023-02-13T04:45:54;100307.13;;;6.05;72.48
15884;BME280;8040;50.254;10.960;2023-02-13T04:48:20;100291.63;;;6.01;72.28
15884;BME280;8040;50.254;10.960;2023-02-13T04:50:45;100287.34;;;5.93;72.60
15884;BME280;8040;50.254;10.960;2023-02-13T04:53:12;100286.06;;;5.96;72.96
15884;BME280;8040;50.254;10.960;2023-02-13T04:55:37;100286.47;;;5.99;72.39
15884;BME280;8040;50.254;10.960;2023-02-13T04:58:05;100304.13;;;5.95;73.19
15884;BME280;8040;50.254;10.960;2023-02-13T05:00:31;100303.06;;;5.96;73.35
15884;BME280;8040;50.254;10.960;2023-02-13T05:03:03;100291.84;;;5.99;73.26
15884;BME280;8040;50.254;10.960;2023-02-13T05:05:29;100292.34;;;5.90;73.76
15884;BME280;8040;50.254;10.960;2023-02-13T05:07:54;100295.03;;;5.90;73.61
15884;BME280;8040;50.254;10.960;2023-02-13T05:10:20;100295.28;;;5.88;73.40
15884;BME280;8040;50.254;10.960;2023-02-13T05:12:46;100290.47;;;5.90;73.61
15884;BME280;8040;50.254;10.960;2023-02-13T05:15:12;100298.56;;;5.90;73.86
15884;BME280;8040;50.254;10.960;2023-02-13T05:17:37;100303.94;;;5.90;73.60
15884;BME280;8040;50.254;10.960;2023-02-13T05:20:02;100306.09;;;5.75;73.94
15884;BME280;8040;50.254;10.960;2023-02-13T05:22:28;100302.56;;;5.81;73.93
15884;BME280;8040;50.254;10.960;2023-02-13T05:25:12;100310.66;;;5.75;74.50
15884;BME280;8040;50.254;10.960;2023-02-13T05:27:37;100312.69;;;5.79;73.77
15884;BME280;8040;50.254;10.960;2023-02-13T05:30:03;100302.56;;;5.81;74.08
15884;BME280;8040;50.254;10.960;2023-02-13T05:32:28;100307.94;;;5.81;74.54
15884;BME280;8040;50.254;10.960;2023-02-13T05:34:54;100312.06;;;5.84;74.07
15884;BME280;8040;50.254;10.960;2023-02-13T05:37:19;100283.19;;;5.66;74.81
15884;BME280;8040;50.254;10.960;2023-02-13T05:39:44;100322.03;;;5.83;74.08
15884;BME280;8040;50.254;10.960;2023-02-13T05:42:10;100318.53;;;5.76;74.37
15884;BME280;8040;50.254;10.960;2023-02-13T05:44:37;100305.28;;;5.75;74.02
15884;BME280;8040;50.254;10.960;2023-02-13T05:47:02;100317.69;;;5.82;74.80
15884;BME280;8040;50.254;10.960;2023-02-13T05:49:28;100306.94;;;5.76;74.53
15884;BME280;8040;50.254;10.960;2023-02-13T05:51:53;100317.50;;;5.77;74.26
15884;BME280;8040;50.254;10.960;2023-02-13T05:54:19;100328.00;;;5.85;74.48
15884;BME280;8040;50.254;10.960;2023-02-13T05:56:44;100322.63;;;5.79;74.25
15884;BME280;8040;50.254;10.960;2023-02-13T05:59:10;100298.94;;;5.63;74.87
15884;BME280;8040;50.254;10.960;2023-02-13T06:01:35;100333.25;;;5.74;74.41
15884;BME280;8040;50.254;10.960;2023-02-13T06:04:01;100318.00;;;5.61;74.69
15884;BME280;8040;50.254;10.960;2023-02-13T06:06:26;100319.06;;;5.60;74.77
15884;BME280;8040;50.254;10.960;2023-02-13T06:08:52;100320.88;;;5.66;75.60
15884;BME280;8040;50.254;10.960;2023-02-13T06:11:18;100339.44;;;5.74;75.53
15884;BME280;8040;50.254;10.960;2023-02-13T06:13:43;100323.47;;;5.79;74.78
15884;BME280;8040;50.254;10.960;2023-02-13T06:16:10;100334.69;;;5.76;74.72
15884;BME280;8040;50.254;10.960;2023-02-13T06:18:36;100338.41;;;5.75;75.12
15884;BME280;8040;50.254;10.960;2023-02-13T06:21:02;100334.69;;;5.76;75.03
15884;BME280;8040;50.254;10.960;2023-02-13T06:23:28;100349.56;;;5.85;75.08
15884;BME280;8040;50.254;10.960;2023-02-13T06:25:53;100333.00;;;5.75;75.12
15884;BME280;8040;50.254;10.960;2023-02-13T06:28:19;100352.06;;;5.80;75.44
15884;BME280;8040;50.254;10.960;2023-02-13T06:30:44;100355.78;;;5.86;75.15
15884;BME280;8040;50.254;10.960;2023-02-13T06:33:09;100339.44;;;5.74;75.42
15884;BME280;8040;50.254;10.960;2023-02-13T06:35:36;100352.63;;;5.89;75.28
15884;BME280;8040;50.254;10.960;2023-02-13T06:38:01;100351.16;;;5.93;75.12
15884;BME280;8040;50.254;10.960;2023-02-13T06:40:27;100333.66;;;5.77;74.89
15884;BME280;8040;50.254;10.960;2023-02-13T06:42:53;100359.03;;;5.94;75.23
15884;BME280;8040;50.254;10.960;2023-02-13T06:45:18;100352.38;;;5.97;75.12
15884;BME280;8040;50.254;10.960;2023-02-13T06:47:46;100348.09;;;5.89;75.19
15884;BME280;8040;50.254;10.960;2023-02-13T06:50:13;100350.16;;;5.87;74.95
15884;BME280;8040;50.254;10.960;2023-02-13T06:52:44;100360.06;;;5.93;75.29
15884;BME280;8040;50.254;10.960;2023-02-13T06:55:10;100359.03;;;5.94;74.98
15884;BME280;8040;50.254;10.960;2023-02-13T06:57:35;100369.75;;;6.01;74.92
15884;BME280;8040;50.254;10.960;2023-02-13T07:00:01;100357.22;;;5.88;74.81
15884;BME280;8040;50.254;10.960;2023-02-13T07:02:33;100349.38;;;5.80;75.06
15884;BME280;8040;50.254;10.960;2023-02-13T07:04:58;100365.13;;;5.83;75.61
15884;BME280;8040;50.254;10.960;2023-02-13T07:07:24;100364.50;;;5.81;75.95
15884;BME280;8040;50.254;10.960;2023-02-13T07:09:49;100357.66;;;5.85;75.50
15884;BME280;8040;50.254;10.960;2023-02-13T07:12:15;100348.97;;;5.83;75.58
15884;BME280;8040;50.254;10.960;2023-02-13T07:14:42;100353.72;;;5.81;75.76
15884;BME280;8040;50.254;10.960;2023-02-13T07:17:07;100350.41;;;5.86;75.46
15884;BME280;8040;50.254;10.960;2023-02-13T07:19:35;100358.25;;;5.87;75.49
15884;BME280;8040;50.254;10.960;2023-02-13T07:22:00;100354.94;;;5.79;76.11
15884;BME280;8040;50.254;10.960;2023-02-13T07:24:26;100369.00;;;5.87;76.36
15884;BME280;8040;50.254;10.960;2023-02-13T07:26:51;100368.22;;;5.80;76.40
15884;BME280;8040;50.254;10.960;2023-02-13T07:29:16;100367.34;;;5.93;76.40
15884;BME280;8040;50.254;10.960;2023-02-13T07:31:41;100371.22;;;5.97;76.46
15884;BME280;8040;50.254;10.960;2023-02-13T07:34:07;100371.28;;;5.90;76.70
15884;BME280;8040;50.254;10.960;2023-02-13T07:36:33;100362.13;;;5.98;76.51
15884;BME280;8040;50.254;10.960;2023-02-13T07:38:58;100374.09;;;6.02;76.09
15884;BME280;8040;50.254;10.960;2023-02-13T07:41:23;100352.50;;;5.77;76.28
15884;BME280;8040;50.254;10.960;2023-02-13T07:43:54;100375.53;;;6.04;75.96
15884;BME280;8040;50.254;10.960;2023-02-13T07:46:20;100372.25;;;6.02;75.78
15884;BME280;8040;50.254;10.960;2023-02-13T07:48:45;100377.16;;;6.05;76.04
15884;BME280;8040;50.254;10.960;2023-02-13T07:51:10;100374.06;;;6.08;76.30
15884;BME280;8040;50.254;10.960;2023-02-13T07:53:38;100380.63;;;6.12;76.12
15884;BME280;8040;50.254;10.960;2023-02-13T07:56:05;100382.53;;;6.12;76.22
15884;BME280;8040;50.254;10.960;2023-02-13T07:58:31;100394.75;;;6.14;76.52
15884;BME280;8040;50.254;10.960;2023-02-13T08:00:56;100370.31;;;6.09;76.45
15884;BME280;8040;50.254;10.960;2023-02-13T08:03:22;100385.56;;;6.22;76.41
15884;BME280;8040;50.254;10.960;2023-02-13T08:05:47;100369.72;;;6.32;75.98
15884;BME280;8040;50.254;10.960;2023-02-13T08:08:13;100366.22;;;6.31;76.03
15884;BME280;8040;50.254;10.960;2023-02-13T08:10:39;100373.84;;;6.34;76.10
15884;BME280;8040;50.254;10.960;2023-02-13T08:13:26;100373.78;;;6.41;75.97
15884;BME280;8040;50.254;10.960;2023-02-13T08:15:51;100351.69;;;6.32;76.28
15884;BME280;8040;50.254;10.960;2023-02-13T08:18:17;100359.66;;;6.45;75.70
15884;BME280;8040;50.254;10.960;2023-02-13T08:20:42;100364.81;;;6.47;75.37
15884;BME280;8040;50.254;10.960;2023-02-13T08:23:11;100328.47;;;6.31;75.08
15884;BME280;8040;50.254;10.960;2023-02-13T08:26:00;100333.19;;;6.36;75.04
15884;BME280;8040;50.254;10.960;2023-02-13T08:28:28;100349.19;;;6.55;75.41
15884;BME280;8040;50.254;10.960;2023-02-13T08:31:01;100330.00;;;6.45;75.15
15884;BME280;8040;50.254;10.960;2023-02-13T08:33:27;100357.34;;;6.67;74.86
15884;BME280;8040;50.254;10.960;2023-02-13T08:35:52;100324.50;;;6.52;74.67
15884;BME280;8040;50.254;10.960;2023-02-13T08:38:18;100365.97;;;6.75;74.76
15884;BME280;8040;50.254;10.960;2023-02-13T08:40:43;100365.69;;;6.83;74.70
15884;BME280;8040;50.254;10.960;2023-02-13T08:43:08;100362.19;;;6.83;74.53
15884;BME280;8040;50.254;10.960;2023-02-13T08:45:35;100362.47;;;6.93;74.58
15884;BME280;8040;50.254;10.960;2023-02-13T08:48:01;100363.72;;;7.08;74.21
15884;BME280;8040;50.254;10.960;2023-02-13T08:50:28;100362.19;;;7.01;74.34
15884;BME280;8040;50.254;10.960;2023-02-13T08:52:53;100370.19;;;7.07;74.18
15884;BME280;8040;50.254;10.960;2023-02-13T08:55:19;100364.03;;;7.00;74.16
15884;BME280;8040;50.254;10.960;2023-02-13T08:57:44;100367.63;;;7.12;74.19
15884;BME280;8040;50.254;10.960;2023-02-13T09:00:10;100351.75;;;7.04;73.86
15884;BME280;8040;50.254;10.960;2023-02-13T09:02:36;100369.66;;;7.17;74.17
15884;BME280;8040;50.254;10.960;2023-02-13T09:05:04;100330.03;;;6.99;74.17
15884;BME280;8040;50.254;10.960;2023-02-13T09:07:35;100366.53;;;7.20;73.95
15884;BME280;8040;50.254;10.960;2023-02-13T09:10:11;100362.16;;;7.18;73.81
15884;BME280;8040;50.254;10.960;2023-02-13T09:25:43;100373.81;;;7.48;73.24
15884;BME280;8040;50.254;10.960;2023-02-13T09:28:10;100357.09;;;7.40;72.78
15884;BME280;8040;50.254;10.960;2023-02-13T09:30:35;100375.78;;;7.41;72.58
15884;BME280;8040;50.254;10.960;2023-02-13T09:33:02;100380.13;;;7.42;72.59
15884;BME280;8040;50.254;10.960;2023-02-13T09:35:27;100377.88;;;7.39;72.94
15884;BME280;8040;50.254;10.960;2023-02-13T09:37:53;100380.13;;;7.42;72.88
15884;BME280;8040;50.254;10.960;2023-02-13T09:40:46;100396.47;;;7.47;73.18
15884;BME280;8040;50.254;10.960;2023-02-13T09:43:17;100396.25;;;7.49;72.97
15884;BME280;8040;50.254;10.960;2023-02-13T09:45:48;100398.13;;;7.48;72.73
15884;BME280;8040;50.254;10.960;2023-02-13T09:48:21;100376.09;;;7.33;72.58
15884;BME280;8040;50.254;10.960;2023-02-13T09:50:49;100387.47;;;7.35;73.12
15884;BME280;8040;50.254;10.960;2023-02-13T09:53:20;100400.44;;;7.45;72.77
15884;BME280;8040;50.254;10.960;2023-02-13T09:55:57;100384.88;;;7.47;72.98
15884;BME280;8040;50.254;10.960;2023-02-13T10:01:04;100391.25;;;7.64;73.14
15884;BME280;8040;50.254;10.960;2023-02-13T10:03:42;100388.56;;;7.64;73.33
15884;BME280;8040;50.254;10.960;2023-02-13T10:16:58;100400.81;;;7.96;71.81
15884;BME280;8040;50.254;10.960;2023-02-13T10:22:40;100408.00;;;8.02;71.50
15884;BME280;8040;50.254;10.960;2023-02-13T10:25:14;100400.69;;;8.02;71.70
15884;BME280;8040;50.254;10.960;2023-02-13T10:27:46;100387.88;;;8.09;71.28
15884;BME280;8040;50.254;10.960;2023-02-13T10:35:40;100384.34;;;8.27;70.55
15884;BME280;8040;50.254;10.960;2023-02-13T10:38:14;100384.47;;;8.32;70.20
15884;BME280;8040;50.254;10.960;2023-02-13T10:40:58;100380.56;;;8.39;70.42
15884;BME280;8040;50.254;10.960;2023-02-13T10:43:29;100384.69;;;8.42;70.19
15884;BME280;8040;50.254;10.960;2023-02-13T10:46:29;100383.41;;;8.44;70.23
15884;BME280;8040;50.254;10.960;2023-02-13T10:49:21;100369.03;;;8.32;69.36
15884;BME280;8040;50.254;10.960;2023-02-13T10:57:15;100367.53;;;8.36;69.14
15884;BME280;8040;50.254;10.960;2023-02-13T11:01:01;100375.03;;;8.23;69.20
15884;BME280;8040;50.254;10.960;2023-02-13T11:02:57;100376.44;;;8.37;69.60
15884;BME280;8040;50.254;10.960;2023-02-13T11:05:29;100372.59;;;8.33;69.20
15884;BME280;8040;50.254;10.960;2023-02-13T11:07:55;100361.91;;;8.38;69.56
15884;BME280;8040;50.254;10.960;2023-02-13T11:10:23;100360.72;;;8.34;69.41
15884;BME280;8040;50.254;10.960;2023-02-13T11:12:50;100364.84;;;8.48;69.32
15884;BME280;8040;50.254;10.960;2023-02-13T11:15:30;100344.75;;;8.44;69.43
15884;BME280;8040;50.254;10.960;2023-02-13T11:18:09;100355.31;;;8.57;69.46
15884;BME280;8040;50.254;10.960;2023-02-13T11:20:41;100350.63;;;8.64;69.60
15884;BME280;8040;50.254;10.960;2023-02-13T11:23:33;100356.84;;;8.76;68.81
15884;BME280;8040;50.254;10.960;2023-02-13T11:28:30;100351.66;;;8.74;68.42
15884;BME280;8040;50.254;10.960;2023-02-13T11:33:37;100365.31;;;8.79;68.34
15884;BME280;8040;50.254;10.960;2023-02-13T11:36:20;100350.81;;;8.74;67.78
15884;BME280;8040;50.254;10.960;2023-02-13T11:38:59;100370.38;;;8.76;67.56
15884;BME280;8040;50.254;10.960;2023-02-13T11:41:25;100363.06;;;8.42;67.37
15884;BME280;8040;50.254;10.960;2023-02-13T11:46:39;100361.66;;;8.51;68.94
15884;BME280;8040;50.254;10.960;2023-02-13T11:49:18;100357.19;;;8.68;68.36
15884;BME280;8040;50.254;10.960;2023-02-13T11:51:46;100365.53;;;8.55;68.58
15884;BME280;8040;50.254;10.960;2023-02-13T11:54:32;100357.44;;;8.43;68.74
15884;BME280;8040;50.254;10.960;2023-02-13T11:57:19;100353.19;;;8.59;69.15
15884;BME280;8040;50.254;10.960;2023-02-13T11:59:47;100349.44;;;8.60;69.09
15884;BME280;8040;50.254;10.960;2023-02-13T12:02:30;100347.41;;;8.67;68.66
15884;BME280;8040;50.254;10.960;2023-02-13T12:07:44;100350.50;;;8.47;68.32
15884;BME280;8040;50.254;10.960;2023-02-13T12:10:20;100355.66;;;8.49;68.42
15884;BME280;8040;50.254;10.960;2023-02-13T12:12:52;100355.53;;;8.21;68.31
15884;BME280;8040;50.254;10.960;2023-02-13T12:15:26;100340.56;;;8.18;68.91
15884;BME280;8040;50.254;10.960;2023-02-13T12:18:25;100345.78;;;8.31;69.02
15884;BME280;8040;50.254;10.960;2023-02-13T12:26:36;100342.63;;;8.69;68.43
15884;BME280;8040;50.254;10.960;2023-02-13T12:32:18;100338.63;;;8.71;68.32
15884;BME280;8040;50.254;10.960;2023-02-13T12:38:02;100324.16;;;8.54;67.77
15884;BME280;8040;50.254;10.960;2023-02-13T12:40:57;100316.97;;;8.48;68.90
15884;BME280;8040;50.254;10.960;2023-02-13T12:43:53;100323.81;;;8.51;68.75
15884;BME280;8040;50.254;10.960;2023-02-13T12:49:25;100310.97;;;8.58;69.21
15884;BME280;8040;50.254;10.960;2023-02-13T13:03:00;100304.00;;;8.85;67.64
15884;BME280;8040;50.254;10.960;2023-02-13T13:05:53;100298.47;;;8.91;67.68
15884;BME280;8040;50.254;10.960;2023-02-13T13:11:25;100293.59;;;9.05;67.67
15884;BME280;8040;50.254;10.960;2023-02-13T13:16:53;100297.47;;;9.09;67.32
15884;BME280;8040;50.254;10.960;2023-02-13T13:19:49;100286.78;;;9.02;67.35
15884;BME280;8040;50.254;10.960;2023-02-13T13:22:17;100296.19;;;9.00;66.87
15884;BME280;8040;50.254;10.960;2023-02-13T13:27:24;100285.38;;;9.00;67.16
15884;BME280;8040;50.254;10.960;2023-02-13T13:29:55;100286.78;;;8.91;67.80
15884;BME280;8040;50.254;10.960;2023-02-13T13:32:23;100282.22;;;8.80;67.98
15884;BME280;8040;50.254;10.960;2023-02-13T13:34:50;100275.56;;;8.71;67.70
15884;BME280;8040;50.254;10.960;2023-02-13T13:37:22;100281.53;;;8.84;67.57
15884;BME280;8040;50.254;10.960;2023-02-13T13:42:50;100275.63;;;8.87;67.54
15884;BME280;8040;50.254;10.960;2023-02-13T13:45:25;100283.63;;;8.94;67.69
15884;BME280;8040;50.254;10.960;2023-02-13T13:51:13;100274.28;;;9.01;67.76
15884;BME280;8040;50.254;10.960;2023-02-13T13:56:24;100255.00;;;8.98;67.49
15884;BME280;8040;50.254;10.960;2023-02-13T13:58:49;100273.31;;;9.19;67.23
15884;BME280;8040;50.254;10.960;2023-02-13T14:03:45;100269.81;;;9.35;66.80
15884;BME280;8040;50.254;10.960;2023-02-13T14:06:17;100269.91;;;9.40;66.60
15884;BME280;8040;50.254;10.960;2023-02-13T14:09:01;100264.50;;;9.40;66.17
15884;BME280;8040;50.254;10.960;2023-02-13T14:11:41;100270.56;;;9.47;66.52
15884;BME280;8040;50.254;10.960;2023-02-13T14:16:55;100268.06;;;9.57;65.63
15884;BME280;8040;50.254;10.960;2023-02-13T14:21:47;100257.22;;;9.57;65.83
15884;BME280;8040;50.254;10.960;2023-02-13T14:24:13;100273.34;;;9.63;65.37
15884;BME280;8040;50.254;10.960;2023-02-13T14:26:39;100262.16;;;9.60;65.06
15884;BME280;8040;50.254;10.960;2023-02-13T14:29:24;100252.38;;;9.59;64.86
15884;BME280;8040;50.254;10.960;2023-02-13T14:32:03;100255.16;;;9.64;64.29
15884;BME280;8040;50.254;10.960;2023-02-13T14:34:32;100245.59;;;9.56;64.31
15884;BME280;8040;50.254;10.960;2023-02-13T14:39:32;100242.38;;;9.59;64.33
15884;BME280;8040;50.254;10.960;2023-02-13T14:42:20;100244.94;;;9.66;64.33
15884;BME280;8040;50.254;10.960;2023-02-13T14:44:54;100238.78;;;9.70;64.64
15884;BME280;8040;50.254;10.960;2023-02-13T14:47:34;100229.06;;;9.74;64.30
15884;BME280;8040;50.254;10.960;2023-02-13T14:50:05;100229.41;;;9.78;64.29
15884;BME280;8040;50.254;10.960;2023-02-13T14:52:34;100231.88;;;9.79;64.19
15884;BME280;8040;50.254;10.960;2023-02-13T14:55:04;100223.63;;;9.74;64.17
15884;BME280;8040;50.254;10.960;2023-02-13T14:57:38;100229.91;;;9.75;64.02
15884;BME280;8040;50.254;10.960;2023-02-13T15:00:25;100222.84;;;9.74;64.39
15884;BME280;8040;50.254;10.960;2023-02-13T15:02:57;100219.38;;;9.78;63.82
15884;BME280;8040;50.254;10.960;2023-02-13T15:05:28;100204.63;;;9.69;64.02
15884;BME280;8040;50.254;10.960;2023-02-13T15:08:05;100218.56;;;9.78;64.12
15884;BME280;8040;50.254;10.960;2023-02-13T15:10:44;100215.28;;;9.76;63.93
15884;BME280;8040;50.254;10.960;2023-02-13T15:16:13;100216.50;;;9.68;63.48
15884;BME280;8040;50.254;10.960;2023-02-13T15:18:41;100215.50;;;9.74;63.91
15884;BME280;8040;50.254;10.960;2023-02-13T15:21:17;100218.22;;;9.74;63.55
15884;BME280;8040;50.254;10.960;2023-02-13T15:23:48;100213.53;;;9.70;63.18
15884;BME280;8040;50.254;10.960;2023-02-13T15:26:23;100216.44;;;9.63;63.58
15884;BME280;8040;50.254;10.960;2023-02-13T15:29:12;100223.50;;;9.64;63.58
15884;BME280;8040;50.254;10.960;2023-02-13T15:31:38;100206.06;;;9.60;63.82
15884;BME280;8040;50.254;10.960;2023-02-13T15:34:19;100210.59;;;9.55;63.88
15884;BME280;8040;50.254;10.960;2023-02-13T15:36:45;100218.22;;;9.58;63.76
15884;BME280;8040;50.254;10.960;2023-02-13T15:39:16;100218.72;;;9.55;63.94
15884;BME280;8040;50.254;10.960;2023-02-13T15:41:59;100198.91;;;9.38;63.88
15884;BME280;8040;50.254;10.960;2023-02-13T15:44:31;100205.88;;;9.34;63.83